Time;durP1;ratioP1;P1;durP2;ratioP2;P2;SDS_P1;SDS_P2;PMS_P1;PMS_P2;Temp;Humidity;BMP_temperature;BMP_pressure;BME280_temperature;BME280_humidity;BME280_pressure;Samples;Min_cycle;Max_cycle;Signal;HPM_P1;HPM_P2
2022/08/17 00:00:39;;;;;;;41.00;36.85;;;20.20;99.90;;;;;;5116432;27;20166;-46
2022/08/17 00:03:05;;;;;;;40.53;36.55;;;20.30;99.90;;;;;;5116230;28;20612;-46
2022/08/17 00:05:35;;;;;;;39.13;34.55;;;20.30;99.90;;;;;;5116391;28;20082;-51
2022/08/17 00:08:00;;;;;;;37.08;33.50;;;20.00;99.90;;;;;;5116398;28;20450;-49
2022/08/17 00:10:26;;;;;;;42.00;37.63;;;20.30;99.90;;;;;;5116277;28;20032;-49
2022/08/17 00:12:52;;;;;;;39.25;35.55;;;20.20;99.90;;;;;;5115480;28;20092;-48
2022/08/17 00:15:22;;;;;;;39.67;36.03;;;20.00;99.90;;;;;;5114797;28;20043;-46
2022/08/17 00:17:49;;;;;;;41.45;37.45;;;20.10;99.90;;;;;;5116068;28;20051;-47
2022/08/17 00:20:16;;;;;;;40.60;36.53;;;20.20;99.90;;;;;;5116114;28;20046;-48
2022/08/17 00:22:41;;;;;;;42.00;37.78;;;20.00;99.90;;;;;;5115887;28;20397;-51
2022/08/17 00:25:12;;;;;;;40.78;36.63;;;20.10;99.90;;;;;;5115975;27;20036;-47
2022/08/17 00:27:38;;;;;;;42.42;38.13;;;20.10;99.90;;;;;;5116023;28;20499;-47
2022/08/17 00:30:06;;;;;;;41.10;37.00;;;20.40;99.90;;;;;;5115844;28;20051;-48
2022/08/17 00:32:50;;;;;;;40.50;36.40;;;20.10;99.90;;;;;;5115895;28;20442;-46
2022/08/17 00:35:26;;;;;;;43.33;38.83;;;20.20;99.90;;;;;;5115947;28;20059;-48
2022/08/17 00:37:53;;;;;;;40.40;36.22;;;19.80;99.90;;;;;;5115738;28;20044;-47
2022/08/17 00:40:19;;;;;;;42.72;38.67;;;20.00;99.90;;;;;;5115725;28;20039;-48
2022/08/17 00:42:47;;;;;;;43.70;39.45;;;20.10;99.90;;;;;;5115780;27;20051;-47
2022/08/17 00:45:13;;;;;;;;;;;19.90;99.90;;;;;;5116204;28;20039;-45
2022/08/17 00:47:39;;;;;;;43.07;38.57;;;19.80;99.90;;;;;;5115610;28;19923;-48
2022/08/17 00:50:09;;;;;;;43.97;39.55;;;19.90;99.90;;;;;;5115525;28;20400;-48
2022/08/17 00:52:42;;;;;;;44.25;39.83;;;19.80;99.90;;;;;;5115524;28;20043;-48
2022/08/17 00:55:08;;;;;;;44.50;40.20;;;19.80;99.90;;;;;;5114424;28;20077;-47
2022/08/17 00:57:48;;;;;;;44.97;40.55;;;19.90;99.90;;;;;;5114150;28;20036;-48
2022/08/17 01:00:25;;;;;;;42.50;38.05;;;19.80;99.90;;;;;;5115539;28;20054;-47
2022/08/17 01:02:56;;;;;;;46.00;41.53;;;19.80;99.90;;;;;;5115318;28;20036;-50
2022/08/17 01:05:27;;;;;;;44.10;39.67;;;19.70;99.90;;;;;;5115180;28;20040;-46
2022/08/17 01:07:53;;;;;;;44.38;40.10;;;19.70;99.90;;;;;;5115329;28;20036;-46
2022/08/17 01:10:25;;;;;;;48.05;43.05;;;19.80;99.90;;;;;;5115168;28;20043;-46
2022/08/17 01:12:51;;;;;;;43.35;39.17;;;19.50;99.90;;;;;;5115078;27;20090;-46
2022/08/17 01:15:16;;;;;;;45.60;41.20;;;19.60;99.90;;;;;;5115170;28;20070;-47
2022/08/17 01:17:43;;;;;;;45.22;40.58;;;19.50;99.90;;;;;;5114973;28;20114;-46
2022/08/17 01:20:09;;;;;;;47.50;42.50;;;19.60;99.90;;;;;;5114734;28;20110;-47
2022/08/17 01:22:35;;;;;;;47.33;42.42;;;19.60;99.90;;;;;;5114870;28;20082;-50
2022/08/17 01:25:03;;;;;;;45.40;40.90;;;19.40;99.90;;;;;;5113535;28;20096;-48
2022/08/17 01:27:30;;;;;;;44.30;40.03;;;19.70;99.90;;;;;;5114878;28;20044;-48
2022/08/17 01:30:05;;;;;;;46.63;41.95;;;19.60;99.90;;;;;;5115030;28;20044;-48
2022/08/17 01:32:30;;;;;;;45.10;40.58;;;19.50;99.90;;;;;;5114429;28;20506;-47
2022/08/17 01:34:57;;;;;;;47.75;43.03;;;19.60;99.90;;;;;;5114578;28;20078;-46
2022/08/17 01:37:33;;;;;;;46.30;41.70;;;19.70;99.90;;;;;;5114792;28;20393;-46
2022/08/17 01:40:05;;;;;;;43.75;39.38;;;19.40;99.90;;;;;;5114682;28;20044;-48
2022/08/17 01:42:57;;;;;;;46.78;42.03;;;19.50;99.90;;;;;;5114331;28;20520;-48
2022/08/17 01:45:29;;;;;;;45.00;40.25;;;19.40;99.90;;;;;;5114467;28;20405;-51
2022/08/17 01:47:54;;;;;;;41.75;37.58;;;19.40;99.90;;;;;;5114621;28;20070;-46
2022/08/17 01:50:26;;;;;;;43.58;39.45;;;19.30;99.90;;;;;;5114372;28;20081;-50
2022/08/17 01:52:57;;;;;;;46.38;41.90;;;19.50;99.90;;;;;;5114211;28;20035;-49
2022/08/17 01:55:29;;;;;;;47.08;42.30;;;19.50;99.90;;;;;;5114197;28;20051;-49
2022/08/17 01:57:55;;;;;;;45.30;40.88;;;19.40;99.90;;;;;;5114142;28;20410;-49
2022/08/17 02:00:21;;;;;;;45.85;41.42;;;19.20;99.90;;;;;;5114269;28;20040;-50
2022/08/17 02:02:46;;;;;;;44.72;40.20;;;19.40;99.90;;;;;;5114034;28;20089;-49
2022/08/17 02:05:12;;;;;;;44.80;40.28;;;19.40;99.90;;;;;;5114142;28;20046;-46
2022/08/17 02:07:39;;;;;;;42.20;38.15;;;19.40;99.90;;;;;;5113944;28;20393;-46
2022/08/17 02:10:07;;;;;;;42.20;38.05;;;19.20;99.90;;;;;;5113728;28;20489;-51
2022/08/17 02:12:34;;;;;;;41.47;37.70;;;19.20;99.90;;;;;;5114107;28;20073;-50
2022/08/17 02:15:00;;;;;;;42.50;38.30;;;19.60;99.90;;;;;;5113996;28;20474;-50
2022/08/17 02:17:26;;;;;;;42.08;37.90;;;19.40;99.90;;;;;;5113929;28;20631;-47
2022/08/17 02:19:51;;;;;;;43.53;39.22;;;19.50;99.90;;;;;;5114194;28;20093;-50
2022/08/17 02:22:17;;;;;;;41.92;37.92;;;19.60;99.90;;;;;;5112632;28;20066;-48
2022/08/17 02:24:44;;;;;;;40.85;36.67;;;19.50;99.90;;;;;;5113516;28;20035;-50
2022/08/17 02:27:09;;;;;;;40.00;36.03;;;19.20;99.90;;;;;;5113799;28;20393;-47
2022/08/17 02:29:36;;;;;;;42.17;37.75;;;19.30;99.90;;;;;;5113690;28;20040;-47
2022/08/17 02:32:02;;;;;;;42.40;38.17;;;19.50;99.90;;;;;;5112314;28;20058;-45
2022/08/17 02:34:28;;;;;;;43.70;39.10;;;19.20;99.90;;;;;;5113661;28;20123;-45
2022/08/17 02:36:54;;;;;;;42.00;37.77;;;19.40;99.90;;;;;;5113133;28;20047;-46
2022/08/17 02:39:20;;;;;;;43.15;38.92;;;19.60;99.90;;;;;;5113438;28;20063;-49
2022/08/17 02:41:46;;;;;;;40.33;36.45;;;19.40;99.90;;;;;;5127312;22;20055;-47
2022/08/17 02:44:11;;;;;;;41.53;37.72;;;19.20;99.90;;;;;;5113388;28;20032;-44
2022/08/17 02:46:37;;;;;;;43.92;39.65;;;19.50;99.90;;;;;;5113298;28;20493;-46
2022/08/17 02:49:03;;;;;;;41.85;37.90;;;19.20;99.90;;;;;;5113136;28;20036;-47
2022/08/17 02:51:30;;;;;;;43.17;39.03;;;19.30;99.90;;;;;;5113237;28;20048;-48
2022/08/17 02:53:56;;;;;;;45.13;40.47;;;19.30;99.90;;;;;;5113134;28;20051;-47
2022/08/17 02:56:22;;;;;;;42.53;38.47;;;19.20;99.90;;;;;;5113178;28;20486;-46
2022/08/17 02:58:48;;;;;;;41.95;37.85;;;19.20;99.90;;;;;;5113329;28;20171;-49
2022/08/17 03:01:13;;;;;;;39.30;35.60;;;19.00;99.90;;;;;;5113131;28;20040;-45
2022/08/17 03:03:39;;;;;;;42.50;38.17;;;19.00;99.90;;;;;;5112953;28;20050;-45
2022/08/17 03:06:06;;;;;;;42.67;38.30;;;19.40;99.90;;;;;;5112948;28;20040;-45
2022/08/17 03:08:32;;;;;;;42.28;38.05;;;19.20;99.90;;;;;;5113144;28;20521;-47
2022/08/17 03:10:58;;;;;;;41.05;37.08;;;19.00;99.90;;;;;;5113039;28;20104;-46
2022/08/17 03:13:24;;;;;;;42.33;38.33;;;19.20;99.90;;;;;;5112876;28;20435;-46
2022/08/17 03:15:50;;;;;;;42.70;38.60;;;19.20;99.90;;;;;;5112999;28;20070;-46
2022/08/17 03:18:19;;;;;;;43.28;38.85;;;19.20;99.90;;;;;;5112702;28;20378;-46
2022/08/17 03:20:45;;;;;;;44.47;40.03;;;;;;;;;;5112802;28;20130;-47
2022/08/17 03:23:11;;;;;;;42.75;38.33;;;;;;;;;;5112627;28;20346;-48
2022/08/17 03:25:40;;;;;;;42.75;38.58;;;;;;;;;;5112850;28;20044;-47
2022/08/17 03:28:06;;;;;;;42.53;38.25;;;19.20;99.90;;;;;;5112777;28;20059;-47
2022/08/17 03:30:33;;;;;;;43.35;39.15;;;;;;;;;;5112710;28;20040;-47
2022/08/17 03:33:00;;;;;;;42.47;38.25;;;19.20;99.90;;;;;;5112542;28;20504;-45
2022/08/17 03:35:32;;;;;;;42.33;38.25;;;19.20;99.90;;;;;;5112525;28;20040;-47
2022/08/17 03:37:58;;;;;;;43.50;39.17;;;19.20;99.90;;;;;;5112937;28;20126;-45
2022/08/17 03:40:24;;;;;;;44.50;39.90;;;19.20;99.90;;;;;;5112634;28;20051;-45
2022/08/17 03:42:53;;;;;;;44.70;40.30;;;19.20;99.90;;;;;;5112688;28;20387;-49
2022/08/17 03:56:41;;;;;;;43.25;38.97;;;19.20;99.90;;;;;;5112499;28;20060;-47
2022/08/17 03:56:43;;;;;;;40.17;36.13;;;19.30;99.90;;;;;;5116414;28;20044;-45
2022/08/17 03:59:11;;;;;;;42.53;38.38;;;19.30;99.90;;;;;;5116238;28;20044;-46
2022/08/17 04:01:37;;;;;;;43.28;38.75;;;19.30;99.90;;;;;;5098101;28;20613;-47
2022/08/17 04:04:03;;;;;;;42.65;38.17;;;19.30;99.90;;;;;;5116229;28;20036;-47
2022/08/17 04:06:28;;;;;;;41.40;36.97;;;19.30;99.90;;;;;;5116365;28;20085;-47
2022/08/17 04:08:54;;;;;;;42.25;38.05;;;19.30;99.90;;;;;;5116008;28;20044;-47
2022/08/17 04:11:19;;;;;;;41.13;37.22;;;19.40;99.90;;;;;;5116151;28;20105;-46
2022/08/17 04:13:45;;;;;;;40.97;36.80;;;19.40;99.90;;;;;;5115942;28;20050;-47
2022/08/17 04:16:11;;;;;;;42.35;38.03;;;19.40;99.90;;;;;;5116032;28;20118;-46
2022/08/17 04:18:36;;;;;;;42.00;37.97;;;19.40;99.90;;;;;;5115952;28;20477;-47
2022/08/17 04:21:02;;;;;;;41.75;37.53;;;19.40;99.90;;;;;;5116185;28;20036;-47
2022/08/17 04:23:32;;;;;;;41.08;36.97;;;19.40;99.90;;;;;;5115559;28;20123;-48
2022/08/17 04:25:58;;;;;;;42.28;37.88;;;19.40;99.90;;;;;;5115746;28;20167;-47
2022/08/17 04:28:24;;;;;;;42.40;38.40;;;19.40;99.90;;;;;;5115664;28;20067;-45
2022/08/17 04:30:49;;;;;;;41.47;37.47;;;19.40;99.90;;;;;;5115551;28;20084;-46
2022/08/17 04:33:24;;;;;;;42.92;38.55;;;19.40;99.90;;;;;;5115556;28;20039;-50
2022/08/17 04:35:56;;;;;;;41.58;37.42;;;19.40;99.90;;;;;;5115357;28;20094;-49
2022/08/17 04:38:25;;;;;;;41.95;37.78;;;19.40;99.90;;;;;;5115448;28;20043;-47
2022/08/17 04:43:38;;;;;;;41.15;37.33;;;19.40;99.90;;;;;;5115416;28;20043;-46
2022/08/17 04:46:07;;;;;;;41.75;37.45;;;19.50;99.90;;;;;;5115494;28;20047;-48
2022/08/17 04:48:47;;;;;;;41.05;36.65;;;19.50;99.90;;;;;;5115525;28;20150;-47
2022/08/17 04:51:18;;;;;;;41.25;37.17;;;19.50;99.90;;;;;;5115517;28;20043;-49
2022/08/17 04:53:47;;;;;;;41.35;36.90;;;19.50;99.90;;;;;;5115391;28;20040;-47
2022/08/17 04:56:15;;;;;;;40.72;36.65;;;19.50;99.90;;;;;;5115121;28;20047;-46
2022/08/17 04:58:46;;;;;;;41.17;37.35;;;19.50;99.90;;;;;;5115627;28;20469;-47
2022/08/17 05:01:12;;;;;;;40.60;36.58;;;19.50;99.90;;;;;;5115131;28;20076;-46
2022/08/17 05:03:38;;;;;;;41.75;37.63;;;19.70;99.90;;;;;;5115137;28;20378;-49
2022/08/17 05:06:03;;;;;;;40.03;35.92;;;19.50;99.90;;;;;;5114956;28;20084;-48
2022/08/17 05:08:29;;;;;;;40.70;36.72;;;19.50;99.90;;;;;;5114903;28;20035;-46
2022/08/17 05:10:55;;;;;;;39.33;35.33;;;19.60;99.90;;;;;;5115003;28;20090;-46
2022/08/17 05:13:26;;;;;;;40.33;36.28;;;19.60;99.90;;;;;;5114819;28;20097;-50
2022/08/17 05:15:58;;;;;;;40.47;36.58;;;19.60;99.90;;;;;;5114969;28;20036;-48
2022/08/17 05:18:24;;;;;;;40.08;36.22;;;19.60;99.90;;;;;;5114797;28;20059;-46
2022/08/17 05:20:50;;;;;;;40.33;36.42;;;19.60;99.90;;;;;;5114761;28;20043;-46
2022/08/17 05:23:18;;;;;;;38.22;34.50;;;19.60;99.90;;;;;;5096559;28;20047;-47
2022/08/17 05:25:49;;;;;;;41.78;37.80;;;19.60;99.90;;;;;;5096601;28;20047;-45
2022/08/17 05:28:17;;;;;;;40.97;36.72;;;19.60;99.90;;;;;;5114756;28;20054;-47
2022/08/17 05:30:44;;;;;;;38.35;34.80;;;19.60;99.90;;;;;;5114614;28;20039;-47
2022/08/17 05:33:17;;;;;;;;;;;19.60;99.90;;;;;;5115034;28;20079;-46
2022/08/17 05:35:48;;;;;;;38.85;34.83;;;;;;;;;;5114475;28;19926;-47
2022/08/17 05:38:16;;;;;;;39.00;35.03;;;19.90;99.90;;;;;;5114496;28;20095;-47
2022/08/17 05:40:42;;;;;;;40.03;36.00;;;19.90;99.90;;;;;;5114266;28;20173;-46
2022/08/17 05:43:21;;;;;;;40.92;36.15;;;19.70;99.90;;;;;;5114331;28;20382;-47
2022/08/17 05:46:14;;;;;;;39.80;35.88;;;19.70;99.90;;;;;;5114309;28;20031;-48
2022/08/17 05:48:49;;;;;;;38.22;34.28;;;19.70;99.90;;;;;;5114087;28;20039;-47
2022/08/17 05:51:54;;;;;;;40.65;36.67;;;19.80;99.90;;;;;;5114067;28;20050;-46
2022/08/17 05:54:53;;;;;;;39.72;35.70;;;19.80;99.90;;;;;;5114078;28;20412;-45
2022/08/17 05:57:36;;;;;;;39.05;35.17;;;19.80;99.90;;;;;;5096011;28;20374;-48
2022/08/17 06:00:10;;;;;;;40.70;36.50;;;19.90;99.90;;;;;;5114339;28;20047;-48
2022/08/17 06:03:04;;;;;;;38.60;34.80;;;19.90;99.90;;;;;;5113994;28;20374;-49
2022/08/17 06:06:01;;;;;;;38.65;34.72;;;19.90;99.90;;;;;;5113864;28;20039;-47
2022/08/17 06:08:46;;;;;;;38.28;34.60;;;19.90;99.90;;;;;;5113855;28;20051;-46
2022/08/17 06:11:35;;;;;;;38.38;34.50;;;19.90;99.90;;;;;;5113088;28;20489;-46
2022/08/17 06:14:26;;;;;;;38.47;34.67;;;19.90;99.90;;;;;;5113832;28;20118;-45
2022/08/17 06:17:01;;;;;;;37.65;33.95;;;20.00;99.90;;;;;;5113676;28;20122;-47
2022/08/17 06:19:39;;;;;;;41.78;37.45;;;20.10;99.90;;;;;;5113646;28;20047;-46
2022/08/17 06:22:08;;;;;;;37.53;33.90;;;20.10;99.90;;;;;;5113639;28;20048;-49
2022/08/17 06:24:40;;;;;;;38.05;34.25;;;20.40;99.90;;;;;;5095452;28;20901;-45
2022/08/17 06:27:15;;;;;;;37.08;33.47;;;20.60;99.90;;;;;;5113577;28;20110;-49
2022/08/17 06:30:05;;;;;;;35.70;32.35;;;20.70;99.90;;;;;;5113619;28;20047;-47
2022/08/17 06:32:31;;;;;;;34.90;31.60;;;20.80;99.90;;;;;;5113379;28;20164;-48
2022/08/17 06:35:00;;;;;;;36.55;33.05;;;20.80;99.90;;;;;;5113417;28;20122;-49
2022/08/17 06:37:31;;;;;;;33.83;30.42;;;20.70;99.90;;;;;;5113531;28;20103;-48
2022/08/17 06:40:14;;;;;;;34.42;31.05;;;20.80;99.90;;;;;;5113145;28;20060;-49
2022/08/17 06:42:46;;;;;;;32.78;29.38;;;20.90;99.90;;;;;;5113211;28;20174;-49
2022/08/17 06:45:30;;;;;;;33.00;29.80;;;20.90;99.90;;;;;;5113476;28;20063;-47
2022/08/17 06:48:23;;;;;;;31.95;29.05;;;20.90;99.90;;;;;;5113423;28;20044;-49
2022/08/17 06:51:18;;;;;;;34.15;30.75;;;21.10;99.90;;;;;;5113304;28;20477;-48
2022/08/17 06:53:53;;;;;;;32.55;29.25;;;21.10;99.90;;;;;;5073355;28;20056;-49
2022/08/17 06:56:46;;;;;;;33.92;30.55;;;21.20;99.90;;;;;;5112903;28;20506;-46
2022/08/17 06:59:18;;;;;;;32.50;29.38;;;21.40;99.90;;;;;;5113225;28;20047;-47
2022/08/17 07:01:47;;;;;;;32.63;29.45;;;21.80;99.90;;;;;;5113180;28;20043;-50
2022/08/17 07:04:18;;;;;;;31.30;28.30;;;22.00;99.90;;;;;;5113191;28;20100;-49
2022/08/17 07:06:55;;;;;;;30.67;27.77;;;22.20;99.90;;;;;;5113189;28;20039;-45
2022/08/17 07:09:35;;;;;;;30.98;27.83;;;22.30;99.90;;;;;;5095058;28;20047;-47
2022/08/17 07:12:09;;;;;;;31.13;28.05;;;22.40;99.90;;;;;;5113159;28;20048;-48
2022/08/17 07:14:42;;;;;;;29.85;27.00;;;22.40;99.90;;;;;;5113109;28;20042;-46
2022/08/17 07:17:17;;;;;;;28.27;25.55;;;22.90;99.90;;;;;;5113193;28;20048;-50
2022/08/17 07:19:44;;;;;;;28.02;25.25;;;23.70;99.90;;;;;;5112859;28;20054;-49
2022/08/17 07:22:33;;;;;;;;;;;24.00;99.90;;;;;;5113607;28;20075;-49
2022/08/17 07:25:02;;;;;;;26.30;23.75;;;24.40;99.90;;;;;;5116805;28;19924;-46
2022/08/17 07:27:54;;;;;;;26.33;23.70;;;24.60;99.90;;;;;;5117096;28;20051;-50
2022/08/17 07:30:24;;;;;;;24.50;22.20;;;24.50;99.90;;;;;;5106008;28;20047;-48
2022/08/17 07:32:52;;;;;;;25.13;22.80;;;24.80;99.90;;;;;;5116938;28;20036;-49
2022/08/17 07:35:36;;;;;;;25.52;23.33;;;24.40;99.90;;;;;;5116954;28;20172;-49
2022/08/17 07:38:29;;;;;;;22.65;20.52;;;24.40;99.90;;;;;;5098480;28;20101;-46
2022/08/17 07:41:03;;;;;;;23.85;21.35;;;24.20;99.90;;;;;;5116617;28;20066;-48
2022/08/17 07:43:38;;;;;;;24.48;22.05;;;24.00;99.90;;;;;;5116609;28;20401;-46
2022/08/17 07:49:14;;;;;;;23.35;21.13;;;23.60;99.90;;;;;;5117350;28;20047;-47
2022/08/17 07:51:42;;;;;;;24.73;22.33;;;23.60;99.90;;;;;;5116516;28;20036;-46
2022/08/17 07:54:14;;;;;;;24.13;21.80;;;23.70;99.90;;;;;;5116629;28;20079;-49
2022/08/17 07:56:55;;;;;;;24.33;22.10;;;23.60;99.90;;;;;;5116498;28;20075;-45
2022/08/17 07:59:25;;;;;;;25.10;22.63;;;23.50;99.90;;;;;;5116349;28;20036;-48
2022/08/17 08:01:56;;;;;;;23.48;21.35;;;23.60;99.90;;;;;;5098259;28;20489;-46
2022/08/17 08:04:41;;;;;;;24.25;21.80;;;23.60;99.90;;;;;;5116316;28;20143;-47
2022/08/17 08:07:23;;;;;;;23.10;21.00;;;23.40;99.90;;;;;;5116257;28;20044;-47
2022/08/17 08:10:07;;;;;;;24.23;21.83;;;23.40;99.90;;;;;;5116168;28;20047;-48
2022/08/17 08:12:42;;;;;;;22.50;20.25;;;23.30;99.90;;;;;;5115875;28;20123;-49
2022/08/17 08:15:08;;;;;;;22.50;20.25;;;23.10;99.90;;;;;;5115958;28;20047;-46
2022/08/17 08:17:44;;;;;;;23.27;21.17;;;23.10;99.90;;;;;;5116087;28;20050;-49
2022/08/17 08:20:11;;;;;;;24.65;22.15;;;23.00;99.90;;;;;;5115809;28;20523;-45
2022/08/17 08:23:00;;;;;;;23.67;21.48;;;23.10;99.90;;;;;;5116321;28;20401;-48
2022/08/17 08:25:47;;;;;;;22.02;19.98;;;23.00;99.90;;;;;;5116044;28;20039;-49
2022/08/17 08:28:19;;;;;;;21.98;19.88;;;23.00;99.90;;;;;;5116100;28;20391;-46
2022/08/17 08:30:52;;;;;;;22.80;20.67;;;22.90;99.90;;;;;;5115665;28;20035;-47
2022/08/17 08:33:30;;;;;;;22.42;20.23;;;22.90;99.90;;;;;;5097328;28;20126;-45
2022/08/17 08:36:20;;;;;;;21.77;19.55;;;23.00;99.90;;;;;;5115090;28;20054;-46
2022/08/17 08:39:04;;;;;;;21.77;19.67;;;23.00;99.90;;;;;;5102926;28;20051;-45
2022/08/17 08:41:45;;;;;;;21.08;19.17;;;23.20;99.90;;;;;;5115219;28;20126;-45
2022/08/17 08:44:22;;;;;;;26.10;23.35;;;23.40;99.90;;;;;;5115556;28;20040;-46
2022/08/17 08:47:05;;;;;;;27.92;25.15;;;23.60;99.90;;;;;;5115638;28;20043;-45
2022/08/17 08:49:40;;;;;;;27.70;25.15;;;23.60;99.90;;;;;;5115454;28;20047;-46
2022/08/17 08:52:38;;;;;;;27.77;25.48;;;23.70;99.90;;;;;;5115379;28;20088;-47
2022/08/17 08:55:18;;;;;;;27.80;25.30;;;23.80;99.90;;;;;;5110119;28;20063;-45
2022/08/17 08:57:55;;;;;;;27.90;25.45;;;23.70;99.90;;;;;;5115405;28;20047;-47
2022/08/17 09:00:24;;;;;;;28.92;26.38;;;23.60;99.90;;;;;;5115214;28;20044;-47
2022/08/17 09:03:09;;;;;;;26.30;23.98;;;23.50;99.90;;;;;;5115311;28;20132;-48
2022/08/17 09:06:06;;;;;;;27.02;24.58;;;23.70;99.90;;;;;;5096858;28;20050;-47
2022/08/17 09:08:54;;;;;;;27.42;25.02;;;23.70;99.90;;;;;;5115001;28;20067;-50
2022/08/17 09:11:25;;;;;;;29.15;26.45;;;23.70;99.90;;;;;;5115058;28;20048;-47
2022/08/17 09:14:13;;;;;;;27.15;24.77;;;23.50;99.90;;;;;;5114839;28;20065;-50
2022/08/17 09:16:51;;;;;;;27.15;24.63;;;23.30;99.90;;;;;;5114719;28;20093;-45
2022/08/17 09:19:19;;;;;;;25.35;23.05;;;23.50;99.90;;;;;;5114846;28;20043;-47
2022/08/17 09:21:57;;;;;;;24.92;22.63;;;23.70;99.90;;;;;;5096552;28;20051;-48
2022/08/17 09:24:55;;;;;;;25.42;23.13;;;23.60;99.90;;;;;;5114501;28;20481;-46
2022/08/17 09:27:29;;;;;;;25.58;23.02;;;24.00;99.90;;;;;;5079296;28;20055;-46
2022/08/17 09:30:01;;;;;;;23.63;21.52;;;24.20;99.90;;;;;;5114864;28;20118;-46
2022/08/17 09:32:38;;;;;;;25.25;22.75;;;24.50;99.90;;;;;;5114290;28;20062;-48
2022/08/17 09:35:11;;;;;;;24.98;22.58;;;24.60;99.90;;;;;;5079283;28;20043;-47
2022/08/17 09:38:00;;;;;;;22.92;20.73;;;24.80;99.90;;;;;;5114404;28;20050;-47
2022/08/17 09:40:32;;;;;;;23.30;21.23;;;24.90;99.90;;;;;;5114300;28;20070;-46
2022/08/17 09:43:19;;;;;;;24.02;21.83;;;24.70;99.90;;;;;;5114339;28;20035;-46
2022/08/17 09:45:50;;;;;;;23.50;21.33;;;24.80;99.90;;;;;;5113592;28;20141;-48
2022/08/17 09:48:54;;;;;;;23.70;21.50;;;24.70;99.90;;;;;;5113878;28;20031;-48
2022/08/17 09:51:26;;;;;;;23.23;20.88;;;24.60;99.90;;;;;;5093162;28;20062;-48
2022/08/17 09:53:52;;;;;;;22.75;20.65;;;24.60;99.90;;;;;;5095792;28;20048;-46
2022/08/17 09:56:30;;;;;;;22.90;20.80;;;24.50;99.90;;;;;;5114159;28;20043;-48
2022/08/17 09:59:07;;;;;;;23.27;21.00;;;24.30;99.90;;;;;;5114001;28;20083;-46
2022/08/17 10:01:45;;;;;;;22.20;20.00;;;24.50;99.90;;;;;;5114194;28;20047;-49
2022/08/17 10:04:23;;;;;;;22.00;19.75;;;24.40;99.90;;;;;;5113880;28;20398;-46
2022/08/17 10:07:10;;;;;;;23.55;21.35;;;24.60;99.90;;;;;;5114030;28;20062;-46
2022/08/17 10:10:04;;;;;;;20.02;18.30;;;24.40;99.90;;;;;;5114172;28;20039;-46
2022/08/17 10:13:02;;;;;;;19.35;17.65;;;24.40;99.90;;;;;;5111112;28;20122;-46
2022/08/17 10:16:06;;;;;;;17.83;16.25;;;24.40;99.90;;;;;;5113700;28;20519;-48
2022/08/17 10:19:02;;;;;;;18.25;16.55;;;24.50;99.90;;;;;;5095491;28;20088;-47
2022/08/17 10:27:47;;;;;;;16.90;15.50;;;24.70;99.90;;;;;;5113686;28;20083;-46
2022/08/17 10:30:16;;;;;;;16.58;14.95;;;24.60;99.90;;;;;;5113496;28;20101;-48
2022/08/17 10:33:01;;;;;;;14.95;13.55;;;24.70;99.90;;;;;;5113607;28;20047;-49
2022/08/17 10:35:49;;;;;;;13.95;12.60;;;24.90;99.90;;;;;;5113484;28;20047;-47
2022/08/17 10:38:24;;;;;;;15.18;13.57;;;25.20;99.90;;;;;;5113323;28;20048;-48
2022/08/17 10:41:04;;;;;;;13.77;12.48;;;25.40;99.90;;;;;;5113114;28;20508;-47
2022/08/17 10:43:46;;;;;;;12.30;11.30;;;25.30;99.90;;;;;;5113731;28;20051;-47
2022/08/17 10:46:17;;;;;;;11.15;10.10;;;25.50;99.90;;;;;;5113512;28;20051;-48
2022/08/17 10:48:43;;;;;;;12.80;11.55;;;25.50;99.90;;;;;;5113317;28;20088;-49
2022/08/17 10:51:35;;;;;;;13.27;12.23;;;25.50;99.90;;;;;;5113350;28;20118;-48
2022/08/17 10:54:02;;;;;;;13.73;12.63;;;25.30;99.90;;;;;;5113243;28;20047;-48
2022/08/17 10:56:49;;;;;;;14.50;13.20;;;25.30;99.90;;;;;;5113302;28;20035;-50
2022/08/17 10:59:33;;;;;;;14.77;13.60;;;25.50;99.90;;;;;;5119849;28;20169;-50
2022/08/17 11:02:02;;;;;;;14.32;12.95;;;25.50;99.90;;;;;;5119989;28;20486;-48
2022/08/17 11:04:56;;;;;;;15.32;13.93;;;25.60;99.90;;;;;;5120063;28;20043;-46
2022/08/17 11:07:57;;;;;;;15.60;14.30;;;25.40;99.90;;;;;;5119937;28;20122;-47
2022/08/17 11:10:22;;;;;;;16.38;14.98;;;25.30;99.90;;;;;;5017435;28;20089;-45
2022/08/17 11:12:48;;;;;;;14.90;13.50;;;25.20;99.90;;;;;;5017248;28;20096;-45
2022/08/17 11:15:31;;;;;;;17.20;15.75;;;25.20;99.90;;;;;;5016939;28;20089;-44
2022/08/17 11:18:00;;;;;;;15.73;14.27;;;25.00;99.90;;;;;;5016957;28;20377;-45
2022/08/17 11:20:56;;;;;;;16.73;15.20;;;25.10;99.90;;;;;;5017007;28;20046;-45
2022/08/17 11:24:01;;;;;;;17.58;15.98;;;25.10;99.90;;;;;;5017295;28;20050;-47
2022/08/17 11:26:33;;;;;;;17.27;15.57;;;25.00;99.90;;;;;;5017313;28;20488;-44
2022/08/17 11:29:09;;;;;;;18.15;16.65;;;24.80;99.90;;;;;;5017052;28;20062;-46
2022/08/17 11:31:41;;;;;;;17.50;15.93;;;24.90;99.90;;;;;;5017196;28;20077;-45
2022/08/17 11:34:25;;;;;;;18.83;16.83;;;25.20;99.90;;;;;;5016738;28;20132;-45
2022/08/17 11:37:08;;;;;;;17.23;15.70;;;25.20;99.90;;;;;;5016768;28;20053;-45
2022/08/17 11:40:11;;;;;;;17.35;15.63;;;25.20;99.90;;;;;;5000346;28;20046;-45
2022/08/17 11:42:37;;;;;;;19.17;16.48;;;25.40;99.90;;;;;;5000691;28;20050;-46
2022/08/17 11:45:32;;;;;;;17.10;15.60;;;25.20;99.90;;;;;;5016885;28;20085;-46
2022/08/17 11:51:32;;;;;;;17.92;16.33;;;25.00;99.90;;;;;;5119501;28;20055;-46
2022/08/17 11:54:29;;;;;;;19.35;17.45;;;24.80;99.90;;;;;;5119686;28;20047;-46
2022/08/17 11:56:58;;;;;;;17.52;15.70;;;24.90;99.90;;;;;;5083887;28;20160;-47
2022/08/17 11:59:32;;;;;;;20.85;18.85;;;25.00;99.90;;;;;;5119593;28;20039;-46
2022/08/17 12:01:59;;;;;;;20.40;18.27;;;25.00;99.90;;;;;;5101125;28;20039;-47
2022/08/17 12:04:33;;;;;;;21.75;19.65;;;25.10;99.90;;;;;;5119804;28;20044;-46
2022/08/17 12:07:09;;;;;;;22.13;19.92;;;25.00;99.90;;;;;;5119354;28;20036;-47
2022/08/17 12:09:41;;;;;;;23.45;21.13;;;24.90;99.90;;;;;;5082457;28;20060;-45
2022/08/17 12:12:15;;;;;;;23.05;20.90;;;25.00;99.90;;;;;;5115882;28;20039;-45
2022/08/17 12:14:53;;;;;;;22.92;20.63;;;25.00;99.90;;;;;;5080595;28;20047;-46
2022/08/17 12:17:28;;;;;;;24.35;21.77;;;25.10;99.90;;;;;;5116054;28;20043;-45
2022/08/17 12:20:06;;;;;;;25.52;23.05;;;25.10;99.90;;;;;;5116225;28;20405;-47
2022/08/17 12:22:46;;;;;;;25.63;23.15;;;25.00;99.90;;;;;;5116001;28;20382;-50
2022/08/17 12:25:34;;;;;;;27.95;25.15;;;25.00;99.90;;;;;;5116093;28;20039;-46
2022/08/17 12:28:00;;;;;;;27.17;24.50;;;24.80;99.90;;;;;;5115677;28;20149;-48
2022/08/17 12:30:26;;;;;;;29.80;26.67;;;24.80;99.90;;;;;;5115704;28;20365;-46
2022/08/17 12:32:52;;;;;;;29.38;26.38;;;24.80;99.90;;;;;;5097329;28;20051;-47
2022/08/17 12:35:37;;;;;;;28.65;25.65;;;24.90;99.90;;;;;;5115511;28;20057;-47
2022/08/17 12:38:06;;;;;;;26.50;23.67;;;24.80;99.90;;;;;;5115691;28;20050;-47
2022/08/17 12:40:32;;;;;;;31.33;28.33;;;24.80;99.90;;;;;;5115342;28;20402;-48
2022/08/17 12:43:05;;;;;;;32.53;29.23;;;24.80;99.90;;;;;;5115478;28;20054;-47
2022/08/17 12:45:38;;;;;;;31.50;28.40;;;24.80;99.90;;;;;;5115071;28;20044;-48
2022/08/17 12:48:12;;;;;;;30.13;26.10;;;24.90;99.90;;;;;;5115131;28;20124;-47
2022/08/17 12:50:41;;;;;;;33.67;29.77;;;25.00;99.90;;;;;;5115468;28;20043;-46
2022/08/17 12:53:23;;;;;;;33.17;29.77;;;25.00;99.90;;;;;;5115466;28;20035;-46
2022/08/17 12:55:50;;;;;;;36.63;33.05;;;25.00;99.90;;;;;;5114946;28;20114;-46
2022/08/17 12:58:23;;;;;;;33.97;30.63;;;24.90;99.90;;;;;;5114979;28;20036;-49
2022/08/17 13:01:03;;;;;;;34.33;30.80;;;25.00;99.90;;;;;;5115436;28;20508;-50
2022/08/17 13:03:37;;;;;;;36.17;32.28;;;25.10;99.90;;;;;;5115210;28;20047;-46
2022/08/17 13:06:13;;;;;;;38.25;34.22;;;24.90;99.90;;;;;;5115184;28;20534;-49
2022/08/17 13:08:46;;;;;;;37.95;34.20;;;24.70;99.90;;;;;;5115180;28;20044;-46
2022/08/17 13:11:15;;;;;;;39.45;34.80;;;24.70;99.90;;;;;;5115124;28;20040;-47
2022/08/17 13:13:44;;;;;;;40.33;36.33;;;24.50;99.90;;;;;;5115066;28;20469;-48
2022/08/17 13:16:15;;;;;;;39.90;35.85;;;24.40;99.90;;;;;;5114991;28;20063;-47
2022/08/17 13:18:45;;;;;;;41.70;37.35;;;24.40;99.90;;;;;;5114816;28;20054;-45
2022/08/17 13:21:32;;;;;;;43.80;38.78;;;24.40;99.90;;;;;;5114786;28;20043;-45
2022/08/17 13:24:09;;;;;;;44.40;40.10;;;24.40;99.90;;;;;;5115088;28;20043;-46
2022/08/17 13:26:58;;;;;;;44.08;39.55;;;24.30;99.90;;;;;;5114688;28;20488;-50
2022/08/17 13:29:24;;;;;;;45.30;40.67;;;24.30;99.90;;;;;;5101163;28;20051;-47